Silverton, CO

11:25 PM MST on December 09, 2016 (GMT -0700)
Baked in Telluride, 127 S. Fir | | Change Station

Elev 8786 ft 37.94 °N, 107.81 °W | Updated 11 seconds ago

Clear
Clear
25.1 °F
Feels Like 25 °F
N
0.0
Wind Variable Wind from NNE
Gusts 1.0 mph

Today
High -- | Low -- °F
--% Chance of Precip.
Yesterday
High -- | Low -- °F
Precip. -- in
Pressure 30.31 in
Visibility 10.0 miles
Clouds Clear
Windchill 25 °F
Dew Point 21 °F
Humidity 80%
Rainfall 0.09 in
Snow Depth Not available.
7:14 AM 4:51 PM
Waxing Gibbous, 81% visible
METAR KTEX 100615Z AUTO 00000KT 10SM CLR M01/M07 A3031 RMK AO2 T10061070
Pressure 30.31 in
Visibility 10.0 miles
Clouds Clear
Windchill 25 °F
Dew Point 21 °F
Humidity 80%
Rainfall 0.09 in
Snow Depth Not available.
7:14 AM 4:51 PM
Waxing Gibbous, 81% visible
METAR KTEX 100615Z AUTO 00000KT 10SM CLR M01/M07 A3031 RMK AO2 T10061070

10-Day Weather Forecast

Almanac

Astronomy

Dec. 09, 2016 Rise Set
Actual Time
Civil Twilight
Nautical Twilight
Astronomical Twilight
Moon
Length of Visible Light
Length of Day
Tomorrow will be .
, % of the Moon is Illuminated

Today's Extremes

State Highs State Lows

Community

WunderPhotos

Upload Photos

1,956,527 photos uploaded!

WunderBlog® & News

Nearby

Air Quality

  Air Quality AQ Index Pollutant
Not available.

Snow Depth

Station Depth Elevation

Earthquake Activity

City Distance Mag. Time & Date
Minimum magnitude displayed is 2.5.

Coastal Water Temperatures

Place Temperature

Stations

Nearby Weather Stations

Station Location Temp. Windchill Dew Point Humidity Wind Precip. Elev Updated Type
                   

Watches & Warnings

There are currently no watches in effect.